sensor_id;sensor_type;location;lat;lon;timestamp;temperature;humidity
72756;SHT30;60881;55.002;73.232;2022-08-01T00:02:01;21.73;72.84
72756;SHT30;60881;55.002;73.232;2022-08-01T00:04:29;21.88;72.12
72756;SHT30;60881;55.002;73.232;2022-08-01T00:06:56;22.04;71.69
72756;SHT30;60881;55.002;73.232;2022-08-01T00:09:33;22.31;70.76
72756;SHT30;60881;55.002;73.232;2022-08-01T00:12:02;22.49;70.19
72756;SHT30;60881;55.002;73.232;2022-08-01T00:14:30;22.72;69.27
72756;SHT30;60881;55.002;73.232;2022-08-01T00:16:58;22.82;69.00
72756;SHT30;60881;55.002;73.232;2022-08-01T00:19:24;23.04;68.24
72756;SHT30;60881;55.002;73.232;2022-08-01T00:21:51;23.19;67.88
72756;SHT30;60881;55.002;73.232;2022-08-01T00:24:17;23.46;66.92
72756;SHT30;60881;55.002;73.232;2022-08-01T00:26:49;23.74;66.08
72756;SHT30;60881;55.002;73.232;2022-08-01T00:29:16;23.96;65.17
72756;SHT30;60881;55.002;73.232;2022-08-01T00:31:43;24.24;64.35
72756;SHT30;60881;55.002;73.232;2022-08-01T00:34:09;24.51;63.38
72756;SHT30;60881;55.002;73.232;2022-08-01T00:36:37;24.82;62.33
72756;SHT30;60881;55.002;73.232;2022-08-01T00:39:03;25.05;61.66
72756;SHT30;60881;55.002;73.232;2022-08-01T00:41:30;25.29;61.00
72756;SHT30;60881;55.002;73.232;2022-08-01T00:43:57;25.56;60.34
72756;SHT30;60881;55.002;73.232;2022-08-01T00:46:23;25.65;59.69
72756;SHT30;60881;55.002;73.232;2022-08-01T00:48:55;25.76;59.48
72756;SHT30;60881;55.002;73.232;2022-08-01T00:51:22;25.71;59.50
72756;SHT30;60881;55.002;73.232;2022-08-01T00:53:50;25.82;59.58
72756;SHT30;60881;55.002;73.232;2022-08-01T00:56:17;25.76;59.28
72756;SHT30;60881;55.002;73.232;2022-08-01T00:58:44;25.73;59.90
72756;SHT30;60881;55.002;73.232;2022-08-01T01:01:11;25.87;59.40
72756;SHT30;60881;55.002;73.232;2022-08-01T01:03:37;25.73;59.19
72756;SHT30;60881;55.002;73.232;2022-08-01T01:06:22;25.86;59.65
72756;SHT30;60881;55.002;73.232;2022-08-01T01:11:47;25.66;59.97
72756;SHT30;60881;55.002;73.232;2022-08-01T01:14:37;25.50;60.64
72756;SHT30;60881;55.002;73.232;2022-08-01T01:17:09;25.20;61.91
72756;SHT30;60881;55.002;73.232;2022-08-01T01:19:47;24.85;63.26
72756;SHT30;60881;55.002;73.232;2022-08-01T01:22:25;24.45;63.42
72756;SHT30;60881;55.002;73.232;2022-08-01T01:27:41;23.77;66.31
72756;SHT30;60881;55.002;73.232;2022-08-01T01:30:12;23.51;66.91
72756;SHT30;60881;55.002;73.232;2022-08-01T01:32:49;23.39;67.23
72756;SHT30;60881;55.002;73.232;2022-08-01T01:35:27;23.28;68.24
72756;SHT30;60881;55.002;73.232;2022-08-01T01:38:01;23.51;67.54
72756;SHT30;60881;55.002;73.232;2022-08-01T01:40:43;23.47;68.12
72756;SHT30;60881;55.002;73.232;2022-08-01T01:43:13;23.59;68.08
72756;SHT30;60881;55.002;73.232;2022-08-01T01:45:47;23.56;67.72
72756;SHT30;60881;55.002;73.232;2022-08-01T01:48:19;23.30;68.08
72756;SHT30;60881;55.002;73.232;2022-08-01T01:50:47;23.33;67.97
72756;SHT30;60881;55.002;73.232;2022-08-01T01:53:17;23.22;68.77
72756;SHT30;60881;55.002;73.232;2022-08-01T01:55:46;23.13;69.28
72756;SHT30;60881;55.002;73.232;2022-08-01T01:58:20;22.93;68.76
72756;SHT30;60881;55.002;73.232;2022-08-01T02:00:48;22.75;69.40
72756;SHT30;60881;55.002;73.232;2022-08-01T02:03:16;22.62;70.91
72756;SHT30;60881;55.002;73.232;2022-08-01T02:05:45;22.59;70.04
72756;SHT30;60881;55.002;73.232;2022-08-01T02:08:15;22.58;70.95
72756;SHT30;60881;55.002;73.232;2022-08-01T02:10:44;22.52;70.83
72756;SHT30;60881;55.002;73.232;2022-08-01T02:13:32;22.48;71.25
72756;SHT30;60881;55.002;73.232;2022-08-01T02:16:09;22.46;70.92
72756;SHT30;60881;55.002;73.232;2022-08-01T02:18:41;22.46;70.78
72756;SHT30;60881;55.002;73.232;2022-08-01T02:21:09;22.42;70.79
72756;SHT30;60881;55.002;73.232;2022-08-01T02:23:40;22.38;70.93
72756;SHT30;60881;55.002;73.232;2022-08-01T02:26:11;22.42;71.60
72756;SHT30;60881;55.002;73.232;2022-08-01T02:28:49;22.44;70.93
72756;SHT30;60881;55.002;73.232;2022-08-01T02:31:20;22.52;71.20
72756;SHT30;60881;55.002;73.232;2022-08-01T02:33:58;22.48;70.84
72756;SHT30;60881;55.002;73.232;2022-08-01T02:36:28;22.48;71.64
72756;SHT30;60881;55.002;73.232;2022-08-01T02:38:57;22.51;70.88
72756;SHT30;60881;55.002;73.232;2022-08-01T02:41:26;22.41;71.18
72756;SHT30;60881;55.002;73.232;2022-08-01T02:43:59;22.42;71.48
72756;SHT30;60881;55.002;73.232;2022-08-01T02:46:41;22.51;71.04
72756;SHT30;60881;55.002;73.232;2022-08-01T02:49:10;22.48;71.34
72756;SHT30;60881;55.002;73.232;2022-08-01T02:51:39;22.44;71.20
72756;SHT30;60881;55.002;73.232;2022-08-01T02:54:08;22.42;71.31
72756;SHT30;60881;55.002;73.232;2022-08-01T02:56:36;22.39;71.53
72756;SHT30;60881;55.002;73.232;2022-08-01T02:59:07;22.39;71.34
72756;SHT30;60881;55.002;73.232;2022-08-01T03:01:34;22.44;72.47
72756;SHT30;60881;55.002;73.232;2022-08-01T03:04:03;22.39;72.24
72756;SHT30;60881;55.002;73.232;2022-08-01T03:06:32;22.45;72.54
72756;SHT30;60881;55.002;73.232;2022-08-01T03:09:04;22.42;71.91
72756;SHT30;60881;55.002;73.232;2022-08-01T03:11:36;22.44;71.88
72756;SHT30;60881;55.002;73.232;2022-08-01T03:14:07;22.55;72.32
72756;SHT30;60881;55.002;73.232;2022-08-01T03:16:38;22.53;71.65
72756;SHT30;60881;55.002;73.232;2022-08-01T03:19:10;22.53;72.24
72756;SHT30;60881;55.002;73.232;2022-08-01T03:21:39;22.63;71.89
72756;SHT30;60881;55.002;73.232;2022-08-01T03:24:07;22.69;71.73
72756;SHT30;60881;55.002;73.232;2022-08-01T03:26:36;22.66;71.58
72756;SHT30;60881;55.002;73.232;2022-08-01T03:29:06;22.72;71.67
72756;SHT30;60881;55.002;73.232;2022-08-01T03:31:37;22.75;71.52
72756;SHT30;60881;55.002;73.232;2022-08-01T03:34:04;22.70;71.72
72756;SHT30;60881;55.002;73.232;2022-08-01T03:36:32;22.70;71.31
72756;SHT30;60881;55.002;73.232;2022-08-01T03:39:07;22.66;71.81
72756;SHT30;60881;55.002;73.232;2022-08-01T03:41:39;22.62;71.61
72756;SHT30;60881;55.002;73.232;2022-08-01T03:44:11;22.63;71.63
72756;SHT30;60881;55.002;73.232;2022-08-01T03:46:43;22.66;71.77
72756;SHT30;60881;55.002;73.232;2022-08-01T03:49:23;22.70;71.95
72756;SHT30;60881;55.002;73.232;2022-08-01T03:52:04;22.72;72.22
72756;SHT30;60881;55.002;73.232;2022-08-01T03:54:33;22.79;71.21
72756;SHT30;60881;55.002;73.232;2022-08-01T03:57:01;22.72;71.66
72756;SHT30;60881;55.002;73.232;2022-08-01T03:59:29;22.73;71.91
72756;SHT30;60881;55.002;73.232;2022-08-01T04:01:56;22.72;71.54
72756;SHT30;60881;55.002;73.232;2022-08-01T04:04:24;22.69;71.24
72756;SHT30;60881;55.002;73.232;2022-08-01T04:06:50;22.68;71.70
72756;SHT30;60881;55.002;73.232;2022-08-01T04:09:20;22.73;71.30
72756;SHT30;60881;55.002;73.232;2022-08-01T04:11:48;22.72;72.39
72756;SHT30;60881;55.002;73.232;2022-08-01T04:14:15;22.70;71.66
72756;SHT30;60881;55.002;73.232;2022-08-01T04:16:41;22.60;72.16
72756;SHT30;60881;55.002;73.232;2022-08-01T04:19:18;22.62;72.00
72756;SHT30;60881;55.002;73.232;2022-08-01T04:21:44;22.66;71.63
72756;SHT30;60881;55.002;73.232;2022-08-01T04:24:16;22.77;71.20
72756;SHT30;60881;55.002;73.232;2022-08-01T04:26:45;22.95;70.39
72756;SHT30;60881;55.002;73.232;2022-08-01T04:29:15;22.89;70.84
72756;SHT30;60881;55.002;73.232;2022-08-01T04:31:45;22.76;70.60
72756;SHT30;60881;55.002;73.232;2022-08-01T04:34:15;22.69;71.71
72756;SHT30;60881;55.002;73.232;2022-08-01T04:36:45;22.55;71.41
72756;SHT30;60881;55.002;73.232;2022-08-01T04:39:15;22.51;71.91
72756;SHT30;60881;55.002;73.232;2022-08-01T04:41:44;22.49;71.77
72756;SHT30;60881;55.002;73.232;2022-08-01T04:44:23;22.70;71.33
72756;SHT30;60881;55.002;73.232;2022-08-01T04:46:51;22.68;70.93
72756;SHT30;60881;55.002;73.232;2022-08-01T04:49:21;22.69;70.15
72756;SHT30;60881;55.002;73.232;2022-08-01T04:51:55;22.65;70.82
72756;SHT30;60881;55.002;73.232;2022-08-01T04:54:27;22.75;70.18
72756;SHT30;60881;55.002;73.232;2022-08-01T04:56:54;22.80;70.05
72756;SHT30;60881;55.002;73.232;2022-08-01T04:59:26;22.96;69.85
72756;SHT30;60881;55.002;73.232;2022-08-01T05:02:12;23.07;70.36
72756;SHT30;60881;55.002;73.232;2022-08-01T05:04:39;23.13;69.88
72756;SHT30;60881;55.002;73.232;2022-08-01T05:07:06;23.06;68.90
72756;SHT30;60881;55.002;73.232;2022-08-01T05:09:35;22.96;69.82
72756;SHT30;60881;55.002;73.232;2022-08-01T05:12:04;22.96;69.69
72756;SHT30;60881;55.002;73.232;2022-08-01T05:14:32;23.14;69.02
72756;SHT30;60881;55.002;73.232;2022-08-01T05:17:00;23.14;69.77
72756;SHT30;60881;55.002;73.232;2022-08-01T05:19:40;23.31;69.22
72756;SHT30;60881;55.002;73.232;2022-08-01T05:22:10;23.27;69.15
72756;SHT30;60881;55.002;73.232;2022-08-01T05:24:39;23.42;69.73
72756;SHT30;60881;55.002;73.232;2022-08-01T05:27:14;23.37;69.41
72756;SHT30;60881;55.002;73.232;2022-08-01T05:29:41;23.31;68.74
72756;SHT30;60881;55.002;73.232;2022-08-01T05:32:08;23.26;69.52
72756;SHT30;60881;55.002;73.232;2022-08-01T05:34:35;23.13;69.27
72756;SHT30;60881;55.002;73.232;2022-08-01T05:37:03;23.03;69.47
72756;SHT30;60881;55.002;73.232;2022-08-01T05:39:30;22.92;69.62
72756;SHT30;60881;55.002;73.232;2022-08-01T05:41:58;22.82;70.50
72756;SHT30;60881;55.002;73.232;2022-08-01T05:44:25;22.73;70.60
72756;SHT30;60881;55.002;73.232;2022-08-01T05:46:51;22.60;70.11
72756;SHT30;60881;55.002;73.232;2022-08-01T05:49:18;22.77;70.27
72756;SHT30;60881;55.002;73.232;2022-08-01T05:51:45;22.80;70.13
72756;SHT30;60881;55.002;73.232;2022-08-01T05:54:12;22.83;70.62
72756;SHT30;60881;55.002;73.232;2022-08-01T05:56:38;22.79;70.41
72756;SHT30;60881;55.002;73.232;2022-08-01T05:59:07;22.92;68.31
72756;SHT30;60881;55.002;73.232;2022-08-01T06:01:43;22.93;68.77
72756;SHT30;60881;55.002;73.232;2022-08-01T06:04:09;22.98;68.70
72756;SHT30;60881;55.002;73.232;2022-08-01T06:06:36;23.09;68.43
72756;SHT30;60881;55.002;73.232;2022-08-01T06:09:03;23.10;68.91
72756;SHT30;60881;55.002;73.232;2022-08-01T06:11:30;23.17;68.54
72756;SHT30;60881;55.002;73.232;2022-08-01T06:13:56;23.00;68.94
72756;SHT30;60881;55.002;73.232;2022-08-01T06:16:23;22.90;70.85
72756;SHT30;60881;55.002;73.232;2022-08-01T06:18:50;22.90;70.34
72756;SHT30;60881;55.002;73.232;2022-08-01T06:21:17;22.75;70.84
72756;SHT30;60881;55.002;73.232;2022-08-01T06:23:44;22.83;70.84
72756;SHT30;60881;55.002;73.232;2022-08-01T06:26:10;22.86;70.73
72756;SHT30;60881;55.002;73.232;2022-08-01T06:28:39;23.00;68.70
72756;SHT30;60881;55.002;73.232;2022-08-01T06:31:05;23.04;69.96
72756;SHT30;60881;55.002;73.232;2022-08-01T06:33:33;23.03;69.54
72756;SHT30;60881;55.002;73.232;2022-08-01T06:36:00;22.98;70.20
72756;SHT30;60881;55.002;73.232;2022-08-01T06:38:26;23.04;69.67
72756;SHT30;60881;55.002;73.232;2022-08-01T06:40:53;23.07;69.41
72756;SHT30;60881;55.002;73.232;2022-08-01T06:43:20;22.93;68.56
72756;SHT30;60881;55.002;73.232;2022-08-01T06:45:47;22.85;69.03
72756;SHT30;60881;55.002;73.232;2022-08-01T06:48:15;22.79;70.05
72756;SHT30;60881;55.002;73.232;2022-08-01T06:50:41;22.70;70.67
72756;SHT30;60881;55.002;73.232;2022-08-01T06:53:09;22.68;70.33
72756;SHT30;60881;55.002;73.232;2022-08-01T06:55:35;22.86;70.10
72756;SHT30;60881;55.002;73.232;2022-08-01T06:58:02;22.93;69.20
72756;SHT30;60881;55.002;73.232;2022-08-01T07:00:35;23.09;68.75
72756;SHT30;60881;55.002;73.232;2022-08-01T07:03:01;23.27;68.16
72756;SHT30;60881;55.002;73.232;2022-08-01T07:05:29;23.42;68.53
72756;SHT30;60881;55.002;73.232;2022-08-01T07:07:57;23.39;68.19
72756;SHT30;60881;55.002;73.232;2022-08-01T07:10:24;23.36;68.74
72756;SHT30;60881;55.002;73.232;2022-08-01T07:12:51;23.31;68.71
72756;SHT30;60881;55.002;73.232;2022-08-01T07:15:17;23.23;68.86
72756;SHT30;60881;55.002;73.232;2022-08-01T07:17:46;23.22;68.41
72756;SHT30;60881;55.002;73.232;2022-08-01T07:20:12;23.07;68.90
72756;SHT30;60881;55.002;73.232;2022-08-01T07:22:39;22.93;69.21
72756;SHT30;60881;55.002;73.232;2022-08-01T07:25:07;22.85;70.13
72756;SHT30;60881;55.002;73.232;2022-08-01T07:27:34;22.89;70.02
72756;SHT30;60881;55.002;73.232;2022-08-01T07:30:02;22.90;69.40
72756;SHT30;60881;55.002;73.232;2022-08-01T07:32:29;22.96;69.15
72756;SHT30;60881;55.002;73.232;2022-08-01T07:34:56;23.03;69.37
72756;SHT30;60881;55.002;73.232;2022-08-01T07:37:23;23.27;69.46
72756;SHT30;60881;55.002;73.232;2022-08-01T07:39:51;23.46;68.75
72756;SHT30;60881;55.002;73.232;2022-08-01T07:42:17;23.63;68.37
72756;SHT30;60881;55.002;73.232;2022-08-01T07:44:43;23.78;67.71
72756;SHT30;60881;55.002;73.232;2022-08-01T07:47:11;23.81;65.53
72756;SHT30;60881;55.002;73.232;2022-08-01T07:49:38;23.74;66.81
72756;SHT30;60881;55.002;73.232;2022-08-01T07:52:05;23.66;66.51
72756;SHT30;60881;55.002;73.232;2022-08-01T07:54:32;23.71;66.86
72756;SHT30;60881;55.002;73.232;2022-08-01T07:56:58;23.81;66.67
72756;SHT30;60881;55.002;73.232;2022-08-01T07:59:26;23.84;66.16
72756;SHT30;60881;55.002;73.232;2022-08-01T08:02:00;23.81;66.87
72756;SHT30;60881;55.002;73.232;2022-08-01T08:04:27;23.80;67.91
72756;SHT30;60881;55.002;73.232;2022-08-01T08:06:53;23.74;65.79
72756;SHT30;60881;55.002;73.232;2022-08-01T08:09:23;23.59;66.58
72756;SHT30;60881;55.002;73.232;2022-08-01T08:11:50;23.66;68.10
72756;SHT30;60881;55.002;73.232;2022-08-01T08:14:28;23.67;67.42
72756;SHT30;60881;55.002;73.232;2022-08-01T08:16:55;23.56;65.65
72756;SHT30;60881;55.002;73.232;2022-08-01T08:19:21;23.46;66.85
72756;SHT30;60881;55.002;73.232;2022-08-01T08:21:49;23.39;67.79
72756;SHT30;60881;55.002;73.232;2022-08-01T08:24:15;23.40;65.65
72756;SHT30;60881;55.002;73.232;2022-08-01T08:26:51;23.54;66.75
72756;SHT30;60881;55.002;73.232;2022-08-01T08:29:21;23.57;65.42
72756;SHT30;60881;55.002;73.232;2022-08-01T08:31:48;23.60;65.76
72756;SHT30;60881;55.002;73.232;2022-08-01T08:34:15;23.63;66.63
72756;SHT30;60881;55.002;73.232;2022-08-01T08:36:42;23.60;66.77
72756;SHT30;60881;55.002;73.232;2022-08-01T08:39:14;23.07;66.58
72756;SHT30;60881;55.002;73.232;2022-08-01T08:41:40;22.68;67.09
72756;SHT30;60881;55.002;73.232;2022-08-01T08:44:08;22.59;67.95
72756;SHT30;60881;55.002;73.232;2022-08-01T08:46:44;22.55;66.92
72756;SHT30;60881;55.002;73.232;2022-08-01T08:49:29;22.36;67.25
72756;SHT30;60881;55.002;73.232;2022-08-01T08:51:59;22.12;67.91
72756;SHT30;60881;55.002;73.232;2022-08-01T08:54:27;22.08;67.97
72756;SHT30;60881;55.002;73.232;2022-08-01T08:56:54;22.08;68.17
72756;SHT30;60881;55.002;73.232;2022-08-01T08:59:22;22.19;68.25
72756;SHT30;60881;55.002;73.232;2022-08-01T09:01:52;22.28;68.34
72756;SHT30;60881;55.002;73.232;2022-08-01T09:04:20;22.35;68.26
72756;SHT30;60881;55.002;73.232;2022-08-01T09:06:48;22.48;67.82
72756;SHT30;60881;55.002;73.232;2022-08-01T09:09:15;22.52;67.47
72756;SHT30;60881;55.002;73.232;2022-08-01T09:11:41;22.52;66.72
72756;SHT30;60881;55.002;73.232;2022-08-01T09:14:19;22.59;67.16
72756;SHT30;60881;55.002;73.232;2022-08-01T09:17:07;22.55;66.62
72756;SHT30;60881;55.002;73.232;2022-08-01T09:22:20;22.62;65.53
72756;SHT30;60881;55.002;73.232;2022-08-01T09:27:33;22.46;66.25
72756;SHT30;60881;55.002;73.232;2022-08-01T09:30:17;22.41;65.11
72756;SHT30;60881;55.002;73.232;2022-08-01T09:33:01;22.31;65.33
72756;SHT30;60881;55.002;73.232;2022-08-01T09:35:34;22.22;64.96
72756;SHT30;60881;55.002;73.232;2022-08-01T09:38:19;22.19;65.92
72756;SHT30;60881;55.002;73.232;2022-08-01T09:40:51;22.21;66.02
72756;SHT30;60881;55.002;73.232;2022-08-01T09:43:30;22.28;67.17
72756;SHT30;60881;55.002;73.232;2022-08-01T09:45:57;22.32;66.55
72756;SHT30;60881;55.002;73.232;2022-08-01T09:48:35;22.46;66.60
72756;SHT30;60881;55.002;73.232;2022-08-01T09:51:27;22.44;65.74
72756;SHT30;60881;55.002;73.232;2022-08-01T09:54:06;22.36;64.25
72756;SHT30;60881;55.002;73.232;2022-08-01T09:56:38;22.39;67.06
72756;SHT30;60881;55.002;73.232;2022-08-01T09:59:14;22.52;65.87
72756;SHT30;60881;55.002;73.232;2022-08-01T10:01:47;22.53;66.17
72756;SHT30;60881;55.002;73.232;2022-08-01T10:04:21;22.69;65.13
72756;SHT30;60881;55.002;73.232;2022-08-01T10:06:51;22.79;64.02
72756;SHT30;60881;55.002;73.232;2022-08-01T10:09:28;22.90;63.67
72756;SHT30;60881;55.002;73.232;2022-08-01T10:11:59;23.10;63.61
72756;SHT30;60881;55.002;73.232;2022-08-01T10:14:26;23.17;61.46
72756;SHT30;60881;55.002;73.232;2022-08-01T10:16:56;23.23;63.77
72756;SHT30;60881;55.002;73.232;2022-08-01T10:19:26;23.24;63.15
72756;SHT30;60881;55.002;73.232;2022-08-01T10:21:54;23.19;63.30
72756;SHT30;60881;55.002;73.232;2022-08-01T10:24:22;23.27;62.78
72756;SHT30;60881;55.002;73.232;2022-08-01T10:27:03;23.33;64.11
72756;SHT30;60881;55.002;73.232;2022-08-01T10:29:46;23.39;63.71
72756;SHT30;60881;55.002;73.232;2022-08-01T10:32:13;23.14;62.93
72756;SHT30;60881;55.002;73.232;2022-08-01T10:34:40;23.10;60.71
72756;SHT30;60881;55.002;73.232;2022-08-01T10:37:06;23.06;61.56
72756;SHT30;60881;55.002;73.232;2022-08-01T10:39:43;22.95;60.72
72756;SHT30;60881;55.002;73.232;2022-08-01T10:42:11;22.88;60.76
72756;SHT30;60881;55.002;73.232;2022-08-01T10:44:38;22.85;62.09
72756;SHT30;60881;55.002;73.232;2022-08-01T10:47:11;22.88;61.87
72756;SHT30;60881;55.002;73.232;2022-08-01T10:49:56;22.89;61.13
72756;SHT30;60881;55.002;73.232;2022-08-01T10:52:27;22.85;61.71
72756;SHT30;60881;55.002;73.232;2022-08-01T10:55:19;22.99;60.77
72756;SHT30;60881;55.002;73.232;2022-08-01T10:57:47;23.06;60.81
72756;SHT30;60881;55.002;73.232;2022-08-01T11:00:21;23.17;61.00
72756;SHT30;60881;55.002;73.232;2022-08-01T11:03:03;23.23;59.52
72756;SHT30;60881;55.002;73.232;2022-08-01T11:05:34;23.22;59.61
72756;SHT30;60881;55.002;73.232;2022-08-01T11:08:04;23.24;57.74
72756;SHT30;60881;55.002;73.232;2022-08-01T11:10:42;23.23;57.15
72756;SHT30;60881;55.002;73.232;2022-08-01T11:13:09;23.23;59.10
72756;SHT30;60881;55.002;73.232;2022-08-01T11:15:48;23.27;57.44
72756;SHT30;60881;55.002;73.232;2022-08-01T11:21:01;23.42;59.24
72756;SHT30;60881;55.002;73.232;2022-08-01T11:23:29;23.45;57.48
72756;SHT30;60881;55.002;73.232;2022-08-01T11:28:30;23.39;57.28
72756;SHT30;60881;55.002;73.232;2022-08-01T11:38:48;23.19;59.41
72756;SHT30;60881;55.002;73.232;2022-08-01T11:41:23;23.26;59.22
72756;SHT30;60881;55.002;73.232;2022-08-01T11:44:00;23.13;57.79
72756;SHT30;60881;55.002;73.232;2022-08-01T11:52:00;22.76;57.40
72756;SHT30;60881;55.002;73.232;2022-08-01T11:54:47;22.55;58.58
72756;SHT30;60881;55.002;73.232;2022-08-01T11:57:19;22.36;57.36
72756;SHT30;60881;55.002;73.232;2022-08-01T11:59:49;22.22;58.54
72756;SHT30;60881;55.002;73.232;2022-08-01T12:02:19;22.11;58.67
72756;SHT30;60881;55.002;73.232;2022-08-01T12:05:03;22.14;57.31
72756;SHT30;60881;55.002;73.232;2022-08-01T12:07:32;21.97;56.89
72756;SHT30;60881;55.002;73.232;2022-08-01T12:10:11;21.82;57.96
72756;SHT30;60881;55.002;73.232;2022-08-01T12:12:46;21.68;58.23
72756;SHT30;60881;55.002;73.232;2022-08-01T12:15:22;21.54;59.45
72756;SHT30;60881;55.002;73.232;2022-08-01T12:18:01;21.61;59.98
72756;SHT30;60881;55.002;73.232;2022-08-01T12:20:33;21.68;59.95
72756;SHT30;60881;55.002;73.232;2022-08-01T12:23:06;21.61;59.21
72756;SHT30;60881;55.002;73.232;2022-08-01T12:25:34;21.43;58.71
72756;SHT30;60881;55.002;73.232;2022-08-01T12:28:03;21.36;58.65
72756;SHT30;60881;55.002;73.232;2022-08-01T12:30:32;21.27;59.29
72756;SHT30;60881;55.002;73.232;2022-08-01T12:33:05;21.31;54.83
72756;SHT30;60881;55.002;73.232;2022-08-01T12:35:33;21.15;53.74
72756;SHT30;60881;55.002;73.232;2022-08-01T12:38:07;21.10;53.07
72756;SHT30;60881;55.002;73.232;2022-08-01T12:40:41;21.11;53.68
72756;SHT30;60881;55.002;73.232;2022-08-01T12:43:08;21.04;53.51
72756;SHT30;60881;55.002;73.232;2022-08-01T12:45:42;21.00;54.31
72756;SHT30;60881;55.002;73.232;2022-08-01T12:48:14;20.86;54.02
72756;SHT30;60881;55.002;73.232;2022-08-01T12:50:43;20.77;52.43
72756;SHT30;60881;55.002;73.232;2022-08-01T12:53:10;20.72;53.99
72756;SHT30;60881;55.002;73.232;2022-08-01T12:55:51;20.75;55.04
72756;SHT30;60881;55.002;73.232;2022-08-01T12:58:21;20.73;56.03
72756;SHT30;60881;55.002;73.232;2022-08-01T13:00:49;20.62;56.48
72756;SHT30;60881;55.002;73.232;2022-08-01T13:03:18;20.57;57.19
72756;SHT30;60881;55.002;73.232;2022-08-01T13:05:50;20.50;57.48
72756;SHT30;60881;55.002;73.232;2022-08-01T13:10:50;20.32;57.34
72756;SHT30;60881;55.002;73.232;2022-08-01T13:13:18;20.28;58.50
72756;SHT30;60881;55.002;73.232;2022-08-01T13:15:46;20.25;58.45
72756;SHT30;60881;55.002;73.232;2022-08-01T13:18:28;20.22;58.70
72756;SHT30;60881;55.002;73.232;2022-08-01T13:21:19;20.21;59.03
72756;SHT30;60881;55.002;73.232;2022-08-01T13:24:10;20.16;58.82
72756;SHT30;60881;55.002;73.232;2022-08-01T13:26:43;20.09;58.47
72756;SHT30;60881;55.002;73.232;2022-08-01T13:29:16;20.11;58.72
72756;SHT30;60881;55.002;73.232;2022-08-01T13:31:44;20.18;58.27
72756;SHT30;60881;55.002;73.232;2022-08-01T13:34:12;20.21;58.60
72756;SHT30;60881;55.002;73.232;2022-08-01T13:36:39;20.25;58.70
72756;SHT30;60881;55.002;73.232;2022-08-01T13:39:16;20.11;59.47
72756;SHT30;60881;55.002;73.232;2022-08-01T13:42:01;20.09;59.57
72756;SHT30;60881;55.002;73.232;2022-08-01T13:44:30;20.05;60.11
72756;SHT30;60881;55.002;73.232;2022-08-01T13:46:57;19.98;60.82
72756;SHT30;60881;55.002;73.232;2022-08-01T13:49:34;20.05;61.23
72756;SHT30;60881;55.002;73.232;2022-08-01T13:52:02;20.08;61.57
72756;SHT30;60881;55.002;73.232;2022-08-01T13:54:28;20.05;61.22
72756;SHT30;60881;55.002;73.232;2022-08-01T13:56:55;20.04;61.29
72756;SHT30;60881;55.002;73.232;2022-08-01T13:59:31;19.98;60.94
72756;SHT30;60881;55.002;73.232;2022-08-01T14:01:58;19.88;61.30
72756;SHT30;60881;55.002;73.232;2022-08-01T14:04:25;19.81;61.66
72756;SHT30;60881;55.002;73.232;2022-08-01T14:06:52;19.82;61.64
72756;SHT30;60881;55.002;73.232;2022-08-01T14:09:19;19.82;61.96
72756;SHT30;60881;55.002;73.232;2022-08-01T14:11:48;19.81;61.80
72756;SHT30;60881;55.002;73.232;2022-08-01T14:14:16;19.74;62.25
72756;SHT30;60881;55.002;73.232;2022-08-01T14:16:42;19.75;62.18
72756;SHT30;60881;55.002;73.232;2022-08-01T14:19:11;19.74;62.20
72756;SHT30;60881;55.002;73.232;2022-08-01T14:21:38;19.69;62.46
72756;SHT30;60881;55.002;73.232;2022-08-01T14:24:06;19.68;62.58
72756;SHT30;60881;55.002;73.232;2022-08-01T14:26:33;19.62;62.71
72756;SHT30;60881;55.002;73.232;2022-08-01T14:29:00;19.55;62.86
72756;SHT30;60881;55.002;73.232;2022-08-01T14:31:26;19.45;63.48
72756;SHT30;60881;55.002;73.232;2022-08-01T14:33:56;19.41;63.41
72756;SHT30;60881;55.002;73.232;2022-08-01T14:36:22;19.37;63.39
72756;SHT30;60881;55.002;73.232;2022-08-01T14:38:49;19.39;63.58
72756;SHT30;60881;55.002;73.232;2022-08-01T14:44:21;19.41;63.79
72756;SHT30;60881;55.002;73.232;2022-08-01T14:46:48;19.34;63.98
72756;SHT30;60881;55.002;73.232;2022-08-01T14:49:16;19.24;64.51
72756;SHT30;60881;55.002;73.232;2022-08-01T14:54:44;19.18;65.45
72756;SHT30;60881;55.002;73.232;2022-08-01T14:57:12;19.11;65.72
72756;SHT30;60881;55.002;73.232;2022-08-01T14:59:54;19.11;66.04
72756;SHT30;60881;55.002;73.232;2022-08-01T15:08:25;18.84;66.69
72756;SHT30;60881;55.002;73.232;2022-08-01T15:10:53;18.74;66.97
72756;SHT30;60881;55.002;73.232;2022-08-01T15:13:19;18.60;67.32
72756;SHT30;60881;55.002;73.232;2022-08-01T15:15:47;18.55;67.34
72756;SHT30;60881;55.002;73.232;2022-08-01T15:18:14;18.52;67.33
72756;SHT30;60881;55.002;73.232;2022-08-01T15:26:45;18.33;68.19
72756;SHT30;60881;55.002;73.232;2022-08-01T15:29:23;18.32;68.24
72756;SHT30;60881;55.002;73.232;2022-08-01T15:31:55;18.22;68.41
72756;SHT30;60881;55.002;73.232;2022-08-01T15:34:21;18.22;68.52
72756;SHT30;60881;55.002;73.232;2022-08-01T15:36:48;18.13;68.96
72756;SHT30;60881;55.002;73.232;2022-08-01T15:39:16;18.09;69.21
72756;SHT30;60881;55.002;73.232;2022-08-01T15:50:51;17.83;70.08
72756;SHT30;60881;55.002;73.232;2022-08-01T15:53:22;17.88;70.01
72756;SHT30;60881;55.002;73.232;2022-08-01T15:55:58;17.83;70.07
72756;SHT30;60881;55.002;73.232;2022-08-01T15:58:26;17.82;70.05
72756;SHT30;60881;55.002;73.232;2022-08-01T16:00:54;17.83;70.26
72756;SHT30;60881;55.002;73.232;2022-08-01T16:03:20;17.79;70.03
72756;SHT30;60881;55.002;73.232;2022-08-01T16:05:47;17.78;70.34
72756;SHT30;60881;55.002;73.232;2022-08-01T16:08:25;17.72;70.53
72756;SHT30;60881;55.002;73.232;2022-08-01T16:10:51;17.65;70.64
72756;SHT30;60881;55.002;73.232;2022-08-01T16:13:19;17.64;70.83
72756;SHT30;60881;55.002;73.232;2022-08-01T16:15:59;17.62;70.96
72756;SHT30;60881;55.002;73.232;2022-08-01T16:18:27;17.58;70.92
72756;SHT30;60881;55.002;73.232;2022-08-01T16:20:59;17.59;70.90
72756;SHT30;60881;55.002;73.232;2022-08-01T16:23:31;17.61;70.97
72756;SHT30;60881;55.002;73.232;2022-08-01T16:25:59;17.62;70.93
72756;SHT30;60881;55.002;73.232;2022-08-01T16:28:25;17.54;71.14
72756;SHT30;60881;55.002;73.232;2022-08-01T16:31:00;17.49;71.26
72756;SHT30;60881;55.002;73.232;2022-08-01T16:33:33;17.45;71.53
72756;SHT30;60881;55.002;73.232;2022-08-01T16:36:04;17.48;71.39